Time;durP1;ratioP1;P1;durP2;ratioP2;P2;SDS_P1;SDS_P2;PMS_P1;PMS_P2;Temp;Humidity;BMP_temperature;BMP_pressure;BME280_temperature;BME280_humidity;BME280_pressure;Samples;Min_cycle;Max_cycle;Signal;HPM_P1;HPM_P2
2021/01/29 00:02:08;;;;;;;17.77;8.18;;;;;;;;;;4994085;28;20030;-79
2021/01/29 00:04:34;;;;;;;18.40;7.85;;;;;;;;;;4994105;28;20026;-79
2021/01/29 00:07:01;;;;;;;18.73;8.10;;;;;;;;;;4976688;28;20038;-81
2021/01/29 00:09:27;;;;;;;21.30;8.38;;;;;;;;;;4993900;28;20073;-80
2021/01/29 00:11:53;;;;;;;22.48;9.50;;;;;;;;;;4975884;28;20490;-81
2021/01/29 00:14:20;;;;;;;23.98;8.65;;;;;;;;;;4976713;28;20040;-89
2021/01/29 00:16:46;;;;;;;18.88;7.85;;;;;;;;;;4976878;28;20081;-89
2021/01/29 00:19:12;;;;;;;22.27;8.90;;;;;;;;;;4994509;28;20026;-90
2021/01/29 00:21:40;;;;;;;27.55;9.13;;;;;;;;;;4977155;28;20026;-89
2021/01/29 00:24:06;;;;;;;23.27;8.88;;;;;;;;;;4994238;28;20026;-89
2021/01/29 00:26:33;;;;;;;24.23;8.68;;;;;;;;;;4976679;28;20033;-89
2021/01/29 00:28:59;;;;;;;21.05;8.65;;;;;;;;;;4976731;28;20197;-91
2021/01/29 00:31:25;;;;;;;22.65;8.30;;;;;;;;;;4976635;28;20030;-81
2021/01/29 00:33:51;;;;;;;23.33;8.70;;;;;;;;;;4993938;28;20038;-88
2021/01/29 00:36:18;;;;;;;24.40;8.93;;;;;;;;;;4994154;28;20033;-86
2021/01/29 00:38:44;;;;;;;24.42;8.27;;;;;;;;;;4976621;28;20132;-90
2021/01/29 00:41:11;;;;;;;25.38;9.55;;;;;;;;;;4976903;28;20498;-89
2021/01/29 00:43:37;;;;;;;29.45;10.02;;;;;;;;;;4976691;28;20027;-89
2021/01/29 00:46:04;;;;;;;20.80;7.68;;;;;;;;;;4976705;28;20113;-83
2021/01/29 00:48:30;;;;;;;19.70;8.10;;;;;;;;;;4993768;28;20027;-81
2021/01/29 00:50:56;;;;;;;17.70;7.25;;;;;;;;;;4994167;28;20030;-81
2021/01/29 00:53:22;;;;;;;23.13;9.25;;;;;;;;;;4994087;28;20038;-79
2021/01/29 00:55:48;;;;;;;23.88;7.95;;;;;;;;;;4976219;28;20026;-78
2021/01/29 00:58:15;;;;;;;29.35;9.75;;;;;;;;;;4972817;28;20058;-81
2021/01/29 01:00:41;;;;;;;20.33;7.68;;;;;;;;;;4974231;28;20103;-80
2021/01/29 01:03:07;;;;;;;26.45;9.23;;;;;;;;;;4974410;28;20034;-89
2021/01/29 01:05:34;;;;;;;20.17;8.70;;;;;;;;;;4974329;28;20070;-89
2021/01/29 01:08:00;;;;;;;26.23;9.57;;;;;;;;;;4973114;28;20122;-81
2021/01/29 01:10:27;;;;;;;27.30;9.05;;;;;;;;;;4974180;28;20042;-80
2021/01/29 01:12:53;;;;;;;23.73;8.88;;;;;;;;;;4974209;28;20030;-80
2021/01/29 01:15:21;;;;;;;24.25;9.07;;;;;;;;;;4974138;28;20037;-80
2021/01/29 01:17:48;;;;;;;19.40;8.35;;;;;;;;;;4972726;28;20387;-81
2021/01/29 01:20:16;;;;;;;28.05;9.23;;;;;;;;;;4972826;28;20058;-81
2021/01/29 01:22:42;;;;;;;26.17;9.60;;;;;;;;;;4973097;28;20050;-88
2021/01/29 01:25:08;;;;;;;27.55;9.40;;;;;;;;;;4977942;28;20027;-89
2021/01/29 01:27:34;;;;;;;20.02;7.88;;;;;;;;;;4976432;28;20034;-78
2021/01/29 01:30:01;;;;;;;21.30;8.57;;;;;;;;;;4977763;28;20089;-89
2021/01/29 01:32:27;;;;;;;37.17;13.13;;;;;;;;;;4978048;28;20027;-94
2021/01/29 01:34:53;;;;;;;33.25;11.55;;;;;;;;;;4977105;28;20491;-91
2021/01/29 01:37:19;;;;;;;29.52;11.48;;;;;;;;;;4977129;28;20109;-90
2021/01/29 01:39:46;;;;;;;31.73;11.45;;;;;;;;;;4976913;28;20034;-90
2021/01/29 01:42:12;;;;;;;25.80;10.07;;;;;;;;;;4978030;28;20030;-92
2021/01/29 01:44:39;;;;;;;25.10;9.85;;;;;;;;;;4977196;28;20069;-90
2021/01/29 01:47:06;;;;;;;24.67;10.07;;;;;;;;;;4978066;28;20046;-90
2021/01/29 01:49:32;;;;;;;22.25;8.73;;;;;;;;;;4976861;28;20031;-89
2021/01/29 01:52:12;;;;;;;27.10;9.45;;;;;;;;;;4976631;28;20125;-90
2021/01/29 01:55:07;;;;;;;25.05;9.25;;;;;;;;;;4976224;28;20034;-89
2021/01/29 01:57:35;;;;;;;23.05;9.38;;;;;;;;;;4959979;28;20039;-92
2021/01/29 02:00:09;;;;;;;27.73;8.75;;;;;;;;;;4976528;28;20138;-89
2021/01/29 02:02:37;;;;;;;21.80;9.45;;;;;;;;;;4976374;28;20027;-92
2021/01/29 02:05:06;;;;;;;25.35;9.95;;;;;;;;;;4976258;28;20069;-89
2021/01/29 02:07:37;;;;;;;21.45;9.25;;;;;;;;;;4976065;28;20027;-87
2021/01/29 02:10:04;;;;;;;21.08;9.05;;;;;;;;;;4975955;28;20038;-87
2021/01/29 02:12:30;;;;;;;28.17;10.75;;;;;;;;;;4977032;28;20031;-87
2021/01/29 02:14:57;;;;;;;30.35;10.23;;;;;;;;;;4976913;28;20407;-88
2021/01/29 02:17:34;;;;;;;26.40;10.13;;;;;;;;;;4975658;28;20031;-87
2021/01/29 02:20:20;;;;;;;23.38;9.27;;;;;;;;;;4975659;28;20035;-87
2021/01/29 02:22:46;;;;;;;25.77;10.10;;;;;;;;;;4975545;28;20054;-86
2021/01/29 02:25:18;;;;;;;27.35;10.30;;;;;;;;;;4976728;28;20098;-88
2021/01/29 02:27:53;;;;;;;24.67;9.63;;;;;;;;;;4975645;28;20038;-88
2021/01/29 02:30:38;;;;;;;27.00;10.10;;;;;;;;;;4977444;28;20086;-89
2021/01/29 02:33:21;;;;;;;31.80;11.05;;;;;;;;;;4976851;28;20027;-89
2021/01/29 02:36:05;;;;;;;24.70;11.02;;;;;;;;;;4975256;28;20042;-89
2021/01/29 02:38:34;;;;;;;26.83;9.70;;;;;;;;;;4975658;28;20027;-89
2021/01/29 02:41:20;;;;;;;25.55;9.82;;;;;;;;;;4975676;28;20476;-88
2021/01/29 02:43:58;;;;;;;27.58;11.32;;;;;;;;;;4976678;28;20015;-88
2021/01/29 02:46:54;;;;;;;24.13;10.02;;;;;;;;;;4975703;28;20065;-87
2021/01/29 02:49:32;;;;;;;20.65;9.50;;;;;;;;;;4963775;28;20068;-89
2021/01/29 02:52:06;;;;;;;23.75;8.95;;;;;;;;;;4975119;28;20034;-85
2021/01/29 02:54:35;;;;;;;27.13;10.55;;;;;;;;;;4975072;28;20034;-88
2021/01/29 02:57:08;;;;;;;26.27;10.20;;;;;;;;;;4975059;28;20027;-89
2021/01/29 02:59:38;;;;;;;27.33;9.73;;;;;;;;;;4957089;29;20127;-90
2021/01/29 03:02:09;;;;;;;25.88;9.40;;;;;;;;;;4955876;29;20028;-91
2021/01/29 03:04:55;;;;;;;25.67;9.35;;;;;;;;;;4957645;29;20069;-90
2021/01/29 03:07:24;;;;;;;25.83;10.57;;;;;;;;;;4955850;29;20464;-90
2021/01/29 03:10:06;;;;;;;24.17;10.20;;;;;;;;;;4956104;29;20488;-90
2021/01/29 03:12:35;;;;;;;27.08;10.82;;;;;;;;;;4956031;29;20027;-92
2021/01/29 03:15:08;;;;;;;25.48;10.60;;;;;;;;;;4955748;29;20047;-80
2021/01/29 03:17:37;;;;;;;31.63;11.60;;;;;;;;;;4955176;29;20031;-88
2021/01/29 03:20:11;;;;;;;26.33;10.15;;;;;;;;;;4956688;29;20063;-92
2021/01/29 03:22:42;;;;;;;26.88;10.75;;;;;;;;;;4956044;29;20388;-92
2021/01/29 03:25:25;;;;;;;24.63;9.98;;;;;;;;;;4956313;29;20027;-92
2021/01/29 03:27:54;;;;;;;30.50;11.27;;;;;;;;;;4956593;29;20031;-92
2021/01/29 03:30:24;;;;;;;29.13;12.77;;;;;;;;;;4955938;29;20035;-93
2021/01/29 03:32:51;;;;;;;32.80;12.50;;;;;;;;;;4955790;29;20058;-90
2021/01/29 03:35:21;;;;;;;34.83;13.30;;;;;;;;;;4955751;29;20042;-92
2021/01/29 03:38:16;;;;;;;25.73;11.93;;;;;;;;;;4955760;29;20023;-93
2021/01/29 03:40:44;;;;;;;30.90;12.40;;;;;;;;;;4955846;28;20105;-92
2021/01/29 03:43:29;;;;;;;26.38;10.15;;;;;;;;;;4956507;29;20094;-90
2021/01/29 03:46:02;;;;;;;25.08;9.40;;;;;;;;;;4955511;28;20065;-93
2021/01/29 03:48:35;;;;;;;29.08;10.63;;;;;;;;;;4954904;29;20023;-93
2021/01/29 03:51:07;;;;;;;26.45;9.10;;;;;;;;;;4955378;29;20031;-91
2021/01/29 03:53:52;;;;;;;27.10;11.40;;;;;;;;;;4955271;29;20028;-91
2021/01/29 03:56:24;;;;;;;30.08;10.70;;;;;;;;;;4955925;29;20034;-93
2021/01/29 03:59:10;;;;;;;31.05;11.77;;;;;;;;;;4969487;28;20061;-93
2021/01/29 04:01:57;;;;;;;27.17;9.85;;;;;;;;;;4961422;28;20039;-92
2021/01/29 04:04:27;;;;;;;28.52;11.48;;;;;;;;;;4974879;28;20023;-92
2021/01/29 04:07:11;;;;;;;22.27;10.52;;;;;;;;;;4973972;28;20022;-79
2021/01/29 04:09:46;;;;;;;27.65;9.90;;;;;;;;;;4973884;28;20122;-89
2021/01/29 04:12:15;;;;;;;24.15;9.15;;;;;;;;;;4974294;28;20502;-89
2021/01/29 04:14:44;;;;;;;24.40;9.25;;;;;;;;;;4977657;28;20043;-92
2021/01/29 04:17:19;;;;;;;25.25;11.50;;;;;;;;;;4975135;28;20494;-91
2021/01/29 04:19:47;;;;;;;25.70;11.25;;;;;;;;;;4973456;28;20042;-78
2021/01/29 04:22:17;;;;;;;41.75;13.02;;;;;;;;;;4974996;28;20026;-92
2021/01/29 04:24:46;;;;;;;33.00;13.15;;;;;;;;;;4973420;28;20042;-79
2021/01/29 04:27:18;;;;;;;31.02;11.75;;;;;;;;;;4974815;28;20475;-92
2021/01/29 04:29:57;;;;;;;32.97;11.52;;;;;;;;;;4974014;28;20035;-86
2021/01/29 04:32:24;;;;;;;33.50;11.85;;;;;;;;;;4973381;28;20395;-80
2021/01/29 04:34:52;;;;;;;29.55;11.57;;;;;;;;;;4973450;28;20043;-79
2021/01/29 04:37:21;;;;;;;24.15;9.38;;;;;;;;;;4973704;28;20031;-91
2021/01/29 04:39:58;;;;;;;21.63;8.85;;;;;;;;;;4974543;28;20023;-96
2021/01/29 04:42:34;;;;;;;17.77;7.85;;;;;;;;;;4975548;28;20034;-90
2021/01/29 04:45:00;;;;;;;13.75;6.03;;;;;;;;;;4973058;28;20027;-82
2021/01/29 04:47:45;;;;;;;13.98;4.90;;;;;;;;;;4973074;28;20491;-79
2021/01/29 04:50:17;;;;;;;9.48;3.40;;;;;;;;;;4972875;28;20034;-79
2021/01/29 04:53:07;;;;;;;10.88;4.55;;;;;;;;;;4972933;28;20023;-79
2021/01/29 04:55:57;;;;;;;9.55;3.85;;;;;;;;;;4929098;28;20054;-79
2021/01/29 04:58:26;;;;;;;12.25;3.55;;;;;;;;;;4974146;28;20050;-78
2021/01/29 05:01:13;;;;;;;9.07;3.72;;;;;;;;;;4977903;28;20023;-83
2021/01/29 05:03:45;;;;;;;8.98;3.67;;;;;;;;;;4976699;28;20033;-78
2021/01/29 05:06:19;;;;;;;6.78;2.88;;;;;;;;;;4978544;28;20041;-82
2021/01/29 05:09:04;;;;;;;10.27;4.00;;;;;;;;;;4976716;28;20049;-83
2021/01/29 05:11:36;;;;;;;13.70;4.07;;;;;;;;;;4976613;28;20027;-82
2021/01/29 05:14:21;;;;;;;9.05;3.88;;;;;;;;;;4976878;28;20096;-83
2021/01/29 05:16:53;;;;;;;7.03;3.53;;;;;;;;;;4978498;28;20467;-84
2021/01/29 05:19:28;;;;;;;6.53;2.47;;;;;;;;;;4976317;28;20027;-82
2021/01/29 05:21:55;;;;;;;9.18;4.00;;;;;;;;;;4976687;28;20034;-82
2021/01/29 05:24:32;;;;;;;8.73;3.25;;;;;;;;;;4978255;28;20034;-82
2021/01/29 05:27:17;;;;;;;7.47;3.35;;;;;;;;;;4976597;28;20031;-82
2021/01/29 05:29:54;;;;;;;6.80;2.63;;;;;;;;;;4976865;28;20027;-83
2021/01/29 05:32:26;;;;;;;6.70;3.05;;;;;;;;;;4976307;28;20049;-80
2021/01/29 05:34:58;;;;;;;8.95;3.33;;;;;;;;;;4976496;28;20039;-83
2021/01/29 05:37:28;;;;;;;6.63;3.55;;;;;;;;;;4978469;28;20027;-84
2021/01/29 05:40:07;;;;;;;5.95;3.28;;;;;;;;;;4976428;28;20471;-84
2021/01/29 05:42:45;;;;;;;9.07;3.45;;;;;;;;;;4978170;28;20372;-83
2021/01/29 05:45:17;;;;;;;10.00;4.03;;;;;;;;;;4976249;28;20125;-83
2021/01/29 05:47:46;;;;;;;13.50;5.57;;;;;;;;;;4976005;28;20434;-79
2021/01/29 05:50:34;;;;;;;12.20;6.07;;;;;;;;;;4977150;28;20113;-82
2021/01/29 05:53:19;;;;;;;24.90;8.90;;;;;;;;;;4976017;28;20034;-83
2021/01/29 05:56:00;;;;;;;19.17;7.72;;;;;;;;;;4976685;28;20042;-84
2021/01/29 05:58:58;;;;;;;23.42;9.00;;;;;;;;;;4975775;28;20125;-83
2021/01/29 06:01:49;;;;;;;23.95;9.02;;;;;;;;;;4924425;28;20043;-83
2021/01/29 06:04:18;;;;;;;26.38;10.35;;;;;;;;;;4976603;28;20026;-83
2021/01/29 06:06:47;;;;;;;28.48;9.98;;;;;;;;;;4975779;28;20074;-84
2021/01/29 06:09:16;;;;;;;24.30;8.48;;;;;;;;;;4976633;28;20073;-83
2021/01/29 06:11:47;;;;;;;22.10;9.95;;;;;;;;;;4975646;28;20141;-80
2021/01/29 06:14:16;;;;;;;26.50;9.25;;;;;;;;;;4975305;28;20035;-75
2021/01/29 06:17:02;;;;;;;29.88;10.18;;;;;;;;;;4976536;28;20031;-75
2021/01/29 06:19:48;;;;;;;21.88;8.75;;;;;;;;;;4976490;28;20030;-81
2021/01/29 06:22:14;;;;;;;21.67;8.82;;;;;;;;;;4977920;28;20031;-75
2021/01/29 06:24:52;;;;;;;22.02;9.18;;;;;;;;;;4976503;28;20432;-82
2021/01/29 06:27:18;;;;;;;23.20;9.25;;;;;;;;;;4974837;28;20031;-76
2021/01/29 06:30:14;;;;;;;25.15;8.75;;;;;;;;;;4976922;28;20034;-75
2021/01/29 06:33:00;;;;;;;27.55;9.98;;;;;;;;;;4954877;28;20045;-77
2021/01/29 06:35:35;;;;;;;27.08;9.93;;;;;;;;;;4975210;28;20071;-77
2021/01/29 06:38:15;;;;;;;19.67;8.75;;;;;;;;;;4975220;28;20384;-78
2021/01/29 06:41:00;;;;;;;30.33;11.48;;;;;;;;;;4975077;28;20033;-77
2021/01/29 06:43:38;;;;;;;32.05;12.57;;;;;;;;;;4975000;28;20019;-77
2021/01/29 06:46:10;;;;;;;27.75;10.32;;;;;;;;;;4976135;28;20464;-78
2021/01/29 06:48:59;;;;;;;18.88;7.70;;;;;;;;;;4972056;28;20023;-75
2021/01/29 06:51:28;;;;;;;21.13;8.43;;;;;;;;;;4947679;28;20582;-76
2021/01/29 06:54:01;;;;;;;24.25;9.55;;;;;;;;;;4974202;28;20043;-76
2021/01/29 06:56:46;;;;;;;27.88;10.88;;;;;;;;;;4975839;28;20046;-77
2021/01/29 06:59:18;;;;;;;21.13;8.73;;;;;;;;;;4974236;28;20051;-79
2021/01/29 07:01:50;;;;;;;24.67;9.38;;;;;;;;;;4974493;28;20038;-79
2021/01/29 07:04:22;;;;;;;24.48;9.30;;;;;;;;;;4974644;28;20030;-80
2021/01/29 07:07:11;;;;;;;26.35;8.90;;;;;;;;;;4974338;28;20027;-77
2021/01/29 07:09:59;;;;;;;26.67;9.98;;;;;;;;;;4939138;28;20038;-80
2021/01/29 07:12:28;;;;;;;23.50;9.20;;;;;;;;;;4974446;28;20549;-78
2021/01/29 07:15:01;;;;;;;24.13;9.63;;;;;;;;;;4974143;28;20039;-78
2021/01/29 07:17:39;;;;;;;29.42;9.65;;;;;;;;;;4974206;28;20419;-79
2021/01/29 07:20:29;;;;;;;18.88;8.07;;;;;;;;;;4975074;28;20038;-77
2021/01/29 07:23:10;;;;;;;26.23;10.70;;;;;;;;;;4961434;28;20054;-80
2021/01/29 07:25:55;;;;;;;24.98;9.25;;;;;;;;;;4973608;28;20085;-80
2021/01/29 07:28:39;;;;;;;23.17;8.52;;;;;;;;;;4975098;28;20495;-85
2021/01/29 07:31:18;;;;;;;26.02;9.02;;;;;;;;;;4971963;28;20038;-86
2021/01/29 07:34:03;;;;;;;28.05;10.45;;;;;;;;;;4974524;28;20042;-80
2021/01/29 07:36:38;;;;;;;22.27;9.93;;;;;;;;;;4971079;28;20027;-80
2021/01/29 07:39:14;;;;;;;26.70;10.88;;;;;;;;;;4973752;28;20452;-81
2021/01/29 07:41:58;;;;;;;26.40;9.98;;;;;;;;;;4975146;28;20069;-84
2021/01/29 07:44:43;;;;;;;31.20;11.85;;;;;;;;;;4975202;28;20023;-86
2021/01/29 07:47:09;;;;;;;33.08;11.80;;;;;;;;;;4975698;28;20365;-81
2021/01/29 07:49:54;;;;;;;27.67;11.00;;;;;;;;;;4973737;28;20027;-80
2021/01/29 07:52:25;;;;;;;29.00;10.85;;;;;;;;;;4974069;28;20428;-81
2021/01/29 07:54:54;;;;;;;29.55;11.27;;;;;;;;;;4974837;28;20050;-86
2021/01/29 07:57:39;;;;;;;26.17;10.93;;;;;;;;;;4975784;28;20035;-85
2021/01/29 08:00:08;;;;;;;30.92;12.00;;;;;;;;;;4976898;28;20026;-81
2021/01/29 08:02:54;;;;;;;28.88;10.82;;;;;;;;;;4976543;28;20048;-83
2021/01/29 08:05:33;;;;;;;25.40;10.18;;;;;;;;;;4994106;28;20042;-82
2021/01/29 08:08:00;;;;;;;29.08;12.45;;;;;;;;;;4976506;28;20033;-82
2021/01/29 08:10:31;;;;;;;28.50;12.13;;;;;;;;;;4993875;28;20033;-80
2021/01/29 08:13:03;;;;;;;32.38;14.30;;;;;;;;;;4976383;28;20028;-81
2021/01/29 08:15:31;;;;;;;28.73;11.98;;;;;;;;;;4993865;28;20034;-80
2021/01/29 08:17:57;;;;;;;30.77;12.60;;;;;;;;;;4976476;28;20085;-82
2021/01/29 08:21:01;;;;;;;31.45;13.15;;;;;;;;;;4993471;28;20391;-84
2021/01/29 08:23:40;;;;;;;30.67;13.52;;;;;;;;;;4895502;29;20025;-85
2021/01/29 08:26:24;;;;;;;25.08;11.13;;;;;;;;;;4896270;29;20037;-85
2021/01/29 08:29:09;;;;;;;30.75;12.00;;;;;;;;;;4952219;28;20075;-85
2021/01/29 08:31:54;;;;;;;28.35;11.73;;;;;;;;;;4976786;28;20039;-79
2021/01/29 08:34:39;;;;;;;35.35;12.05;;;;;;;;;;4977162;28;20049;-83
2021/01/29 08:37:14;;;;;;;28.77;11.88;;;;;;;;;;4979614;28;20052;-81
2021/01/29 08:39:46;;;;;;;32.00;10.95;;;;;;;;;;4980043;28;20022;-84
2021/01/29 08:42:24;;;;;;;27.58;10.13;;;;;;;;;;4977929;28;20054;-81
2021/01/29 08:44:55;;;;;;;31.35;10.80;;;;;;;;;;4998096;28;20034;-85
2021/01/29 08:47:28;;;;;;;34.10;12.68;;;;;;;;;;4979157;28;20037;-81
2021/01/29 08:50:13;;;;;;;32.58;12.75;;;;;;;;;;4979489;28;20110;-79
2021/01/29 08:52:48;;;;;;;30.50;12.05;;;;;;;;;;4977235;28;20402;-79
2021/01/29 08:55:33;;;;;;;55.13;17.17;;;;;;;;;;4979172;28;20034;-80
2021/01/29 08:58:19;;;;;;;28.90;11.10;;;;;;;;;;4997126;28;20051;-85
2021/01/29 09:00:45;;;;;;;29.00;11.63;;;;;;;;;;4957450;28;20038;-80
2021/01/29 09:03:24;;;;;;;33.42;13.30;;;;;;;;;;4979781;28;20058;-81
2021/01/29 09:05:59;;;;;;;33.38;12.07;;;;;;;;;;4979777;28;20542;-80
2021/01/29 09:08:25;;;;;;;26.85;11.73;;;;;;;;;;4979811;28;20054;-80
2021/01/29 09:10:51;;;;;;;35.88;13.43;;;;;;;;;;4979682;28;20172;-80
2021/01/29 09:13:19;;;;;;;29.38;12.63;;;;;;;;;;4979601;28;20034;-79
2021/01/29 09:16:03;;;;;;;30.17;11.95;;;;;;;;;;4979775;28;20019;-80
2021/01/29 09:18:29;;;;;;;30.63;11.55;;;;;;;;;;4979482;28;20092;-80
2021/01/29 09:21:15;;;;;;;25.83;10.75;;;;;;;;;;4979614;28;20030;-78
2021/01/29 09:23:48;;;;;;;37.08;14.25;;;;;;;;;;4975105;28;20034;-85
2021/01/29 09:26:19;;;;;;;36.92;13.75;;;;;;;;;;4986529;28;20026;-89
2021/01/29 09:28:46;;;;;;;28.45;12.00;;;;;;;;;;4981375;28;20042;-81
2021/01/29 09:31:19;;;;;;;32.28;12.55;;;;;;;;;;4996021;28;20022;-78
2021/01/29 09:33:53;;;;;;;32.10;13.15;;;;;;;;;;4994161;28;20121;-85
2021/01/29 09:36:22;;;;;;;39.10;13.10;;;;;;;;;;4979108;28;20495;-88
2021/01/29 09:38:48;;;;;;;31.35;12.65;;;;;;;;;;4978666;28;20096;-83
2021/01/29 09:41:20;;;;;;;27.23;12.13;;;;;;;;;;4978613;28;20018;-80
2021/01/29 09:43:50;;;;;;;27.20;11.98;;;;;;;;;;4978485;28;20037;-82
2021/01/29 09:46:27;;;;;;;28.23;11.00;;;;;;;;;;4978975;28;20032;-79
2021/01/29 09:48:58;;;;;;;29.38;10.05;;;;;;;;;;4979050;28;20029;-80
2021/01/29 09:51:41;;;;;;;28.58;10.02;;;;;;;;;;4995620;28;20416;-79
2021/01/29 09:54:14;;;;;;;21.13;10.35;;;;;;;;;;4978426;28;20108;-79
2021/01/29 09:56:45;;;;;;;25.23;11.13;;;;;;;;;;4996086;28;20101;-81
2021/01/29 09:59:30;;;;;;;25.00;11.05;;;;;;;;;;4995261;28;20056;-79
2021/01/29 10:02:13;;;;;;;26.15;10.90;;;;;;;;;;4978566;28;20038;-79
2021/01/29 10:04:57;;;;;;;22.33;9.80;;;;;;;;;;4996232;28;20467;-80
2021/01/29 10:07:24;;;;;;;26.63;10.65;;;;;;;;;;4978481;28;20554;-80
2021/01/29 10:10:13;;;;;;;31.50;12.73;;;;;;;;;;4978523;28;20058;-81
2021/01/29 10:12:43;;;;;;;29.80;11.80;;;;;;;;;;4978380;28;20436;-80
2021/01/29 10:15:16;;;;;;;27.95;11.73;;;;;;;;;;4977794;28;20038;-80
2021/01/29 10:17:43;;;;;;;;;;;;;;;;;;4992468;28;20566;-81
2021/01/29 10:20:12;;;;;;;26.10;11.07;;;;;;;;;;4995047;28;19924;-81
2021/01/29 10:22:57;;;;;;;30.50;11.70;;;;;;;;;;4978112;28;20026;-84
2021/01/29 10:25:42;;;;;;;23.23;11.10;;;;;;;;;;4978233;28;20076;-85
2021/01/29 10:28:08;;;;;;;22.90;10.88;;;;;;;;;;4977358;28;20033;-84
2021/01/29 10:30:34;;;;;;;24.88;12.00;;;;;;;;;;4995964;28;20443;-83
2021/01/29 10:33:03;;;;;;;23.80;11.25;;;;;;;;;;4977315;28;20022;-83
2021/01/29 10:35:32;;;;;;;19.50;9.75;;;;;;;;;;4978046;28;20041;-82
2021/01/29 10:38:00;;;;;;;22.02;9.35;;;;;;;;;;4995079;28;20383;-84
2021/01/29 10:40:38;;;;;;;26.95;11.35;;;;;;;;;;4978694;28;20019;-86
2021/01/29 10:43:15;;;;;;;31.70;13.48;;;;;;;;;;4976311;28;20320;-86
2021/01/29 10:45:57;;;;;;;27.60;11.15;;;;;;;;;;4971877;28;20031;-86
2021/01/29 10:48:42;;;;;;;25.42;10.75;;;;;;;;;;4977880;28;20054;-86
2021/01/29 10:51:26;;;;;;;24.40;9.40;;;;;;;;;;4978013;28;20045;-83
2021/01/29 10:53:58;;;;;;;30.85;10.73;;;;;;;;;;4978094;28;20030;-85
2021/01/29 10:56:28;;;;;;;27.27;12.35;;;;;;;;;;4994400;28;20030;-86
2021/01/29 10:59:05;;;;;;;31.65;13.25;;;;;;;;;;4977738;28;20047;-87
2021/01/29 11:01:36;;;;;;;36.30;12.05;;;;;;;;;;4977892;28;20042;-85
2021/01/29 11:04:07;;;;;;;32.00;12.07;;;;;;;;;;4978676;28;20454;-85
2021/01/29 11:06:49;;;;;;;30.65;12.73;;;;;;;;;;4978909;28;20018;-85
2021/01/29 11:09:20;;;;;;;34.08;12.60;;;;;;;;;;4977805;28;20031;-86
2021/01/29 11:12:01;;;;;;;28.95;11.38;;;;;;;;;;4977524;28;20030;-85
2021/01/29 11:14:36;;;;;;;26.67;10.82;;;;;;;;;;4994970;28;20034;-85
2021/01/29 11:17:06;;;;;;;27.77;11.10;;;;;;;;;;4997239;28;20026;-86
2021/01/29 11:19:37;;;;;;;23.20;11.10;;;;;;;;;;4980102;28;20026;-85
2021/01/29 11:22:13;;;;;;;27.30;11.88;;;;;;;;;;4978542;28;20042;-85
2021/01/29 11:25:17;;;;;;;28.52;11.02;;;;;;;;;;4977205;28;20117;-85
2021/01/29 11:27:46;;;;;;;30.77;11.25;;;;;;;;;;4896735;29;20374;-86
2021/01/29 11:30:12;;;;;;;25.92;9.80;;;;;;;;;;4897117;29;20073;-85
2021/01/29 11:32:40;;;;;;;20.98;8.98;;;;;;;;;;4938100;28;20066;-86
2021/01/29 11:35:07;;;;;;;23.00;8.98;;;;;;;;;;4977142;28;20042;-86
2021/01/29 11:37:43;;;;;;;19.15;7.75;;;;;;;;;;4994756;28;20101;-86
2021/01/29 11:40:24;;;;;;;22.92;8.93;;;;;;;;;;4976990;28;20030;-84
2021/01/29 11:42:56;;;;;;;22.83;9.18;;;;;;;;;;4976945;28;20232;-86
2021/01/29 11:45:28;;;;;;;28.27;11.02;;;;;;;;;;4976935;28;20372;-86
2021/01/29 11:48:07;;;;;;;23.80;10.10;;;;;;;;;;4977307;28;20387;-87
2021/01/29 11:50:37;;;;;;;23.08;10.05;;;;;;;;;;4976594;28;20030;-87
2021/01/29 11:53:09;;;;;;;28.23;12.63;;;;;;;;;;4994152;28;20026;-84
2021/01/29 11:55:47;;;;;;;31.42;12.93;;;;;;;;;;4994470;28;20037;-87
2021/01/29 11:58:20;;;;;;;31.00;12.35;;;;;;;;;;4976489;28;20046;-86
2021/01/29 12:01:09;;;;;;;28.33;13.02;;;;;;;;;;4976621;28;20088;-87
2021/01/29 12:03:44;;;;;;;25.08;11.95;;;;;;;;;;4994263;28;20129;-87
2021/01/29 12:06:16;;;;;;;31.63;12.32;;;;;;;;;;4994221;28;20027;-86
2021/01/29 12:08:48;;;;;;;24.88;9.20;;;;;;;;;;4975764;28;20472;-87
2021/01/29 12:11:28;;;;;;;24.23;10.35;;;;;;;;;;4976523;28;20030;-86
2021/01/29 12:14:12;;;;;;;24.20;10.30;;;;;;;;;;4976464;28;20027;-86
2021/01/29 12:16:39;;;;;;;22.98;10.55;;;;;;;;;;4976390;28;20487;-86
2021/01/29 12:19:06;;;;;;;15.20;7.50;;;;;;;;;;4995215;28;20049;-85
2021/01/29 12:21:32;;;;;;;16.80;7.88;;;;;;;;;;4975544;28;20018;-80
2021/01/29 12:24:19;;;;;;;15.85;8.10;;;;;;;;;;4978094;28;20031;-81
2021/01/29 12:26:58;;;;;;;16.05;7.55;;;;;;;;;;4994140;28;20030;-85
2021/01/29 12:29:43;;;;;;;17.58;7.85;;;;;;;;;;4994471;28;20450;-83
2021/01/29 12:32:21;;;;;;;18.83;8.70;;;;;;;;;;4956887;28;20035;-86
2021/01/29 12:34:55;;;;;;;16.52;7.22;;;;;;;;;;4974806;28;20076;-84
2021/01/29 12:37:24;;;;;;;17.73;8.57;;;;;;;;;;4956914;28;20027;-79
2021/01/29 12:39:53;;;;;;;17.48;8.55;;;;;;;;;;4989243;28;20368;-81
2021/01/29 12:42:19;;;;;;;18.60;8.25;;;;;;;;;;4976111;28;20475;-82
2021/01/29 12:44:58;;;;;;;18.58;8.05;;;;;;;;;;4993518;28;20034;-80
2021/01/29 12:47:42;;;;;;;18.95;8.50;;;;;;;;;;4993884;28;20106;-87
2021/01/29 12:50:27;;;;;;;19.30;7.75;;;;;;;;;;4976139;28;20046;-87
2021/01/29 12:52:56;;;;;;;19.83;8.82;;;;;;;;;;4976580;28;20113;-86
2021/01/29 12:55:31;;;;;;;15.38;8.02;;;;;;;;;;4993317;28;20092;-81
2021/01/29 12:58:03;;;;;;;23.50;7.35;;;;;;;;;;4993247;28;20509;-80
2021/01/29 13:00:38;;;;;;;16.45;7.55;;;;;;;;;;4993438;28;20379;-81
2021/01/29 13:03:07;;;;;;;13.60;7.07;;;;;;;;;;4993525;28;20081;-82
2021/01/29 13:05:48;;;;;;;18.05;6.90;;;;;;;;;;4993528;28;20050;-81
2021/01/29 13:08:26;;;;;;;17.63;6.53;;;;;;;;;;4976014;28;20026;-82
2021/01/29 13:11:06;;;;;;;22.67;9.30;;;;;;;;;;4976001;28;20394;-81
2021/01/29 13:13:54;;;;;;;16.00;7.40;;;;;;;;;;4993287;28;20041;-80
2021/01/29 13:16:36;;;;;;;20.40;8.52;;;;;;;;;;4993216;28;20054;-81
2021/01/29 13:19:05;;;;;;;17.60;6.80;;;;;;;;;;4993864;28;20105;-81
2021/01/29 13:22:00;;;;;;;17.48;8.05;;;;;;;;;;4996878;28;20032;-84
2021/01/29 13:24:33;;;;;;;16.42;7.47;;;;;;;;;;4963281;28;20042;-83
2021/01/29 13:27:03;;;;;;;18.02;7.30;;;;;;;;;;4996754;28;20022;-82
2021/01/29 13:29:32;;;;;;;18.20;7.43;;;;;;;;;;4979281;28;20062;-82
2021/01/29 13:32:16;;;;;;;14.68;6.45;;;;;;;;;;4997014;28;20034;-81
2021/01/29 13:34:43;;;;;;;20.70;7.70;;;;;;;;;;4979075;28;20522;-82
2021/01/29 13:37:20;;;;;;;18.58;7.68;;;;;;;;;;4979134;28;20029;-83
2021/01/29 13:39:47;;;;;;;15.27;6.72;;;;;;;;;;4996882;28;20034;-82
2021/01/29 13:42:32;;;;;;;14.68;6.70;;;;;;;;;;4978930;28;20028;-81
2021/01/29 13:45:07;;;;;;;15.38;7.45;;;;;;;;;;5011196;28;20037;-85
2021/01/29 13:47:34;;;;;;;16.20;7.53;;;;;;;;;;5000912;28;20052;-89
2021/01/29 13:50:26;;;;;;;17.95;7.78;;;;;;;;;;4980237;28;20030;-86
2021/01/29 13:52:54;;;;;;;17.73;6.65;;;;;;;;;;4975246;28;20479;-90
2021/01/29 13:55:26;;;;;;;15.30;7.18;;;;;;;;;;4980111;28;20042;-89
2021/01/29 13:58:05;;;;;;;11.68;5.75;;;;;;;;;;4981475;28;20050;-90
2021/01/29 14:00:57;;;;;;;11.98;5.00;;;;;;;;;;4978695;28;20042;-84
2021/01/29 14:03:33;;;;;;;13.10;5.88;;;;;;;;;;4955621;28;20038;-84
2021/01/29 14:06:01;;;;;;;13.57;6.18;;;;;;;;;;4979497;28;20077;-84
2021/01/29 14:08:29;;;;;;;10.30;5.20;;;;;;;;;;4978695;28;20027;-86
2021/01/29 14:10:55;;;;;;;13.90;6.68;;;;;;;;;;4976325;28;20023;-84
2021/01/29 14:13:40;;;;;;;16.58;6.70;;;;;;;;;;4976304;28;20438;-83
2021/01/29 14:16:18;;;;;;;11.73;5.50;;;;;;;;;;4975304;28;20483;-82
2021/01/29 14:18:52;;;;;;;11.90;5.40;;;;;;;;;;4975360;28;20022;-82
2021/01/29 14:21:31;;;;;;;13.82;6.50;;;;;;;;;;4975334;28;20031;-83
2021/01/29 14:24:16;;;;;;;12.90;6.05;;;;;;;;;;4975272;28;20035;-82
2021/01/29 14:26:42;;;;;;;15.80;7.60;;;;;;;;;;4975562;28;20105;-89
2021/01/29 14:29:19;;;;;;;14.55;6.80;;;;;;;;;;4976489;28;20054;-89
2021/01/29 14:32:09;;;;;;;11.25;5.15;;;;;;;;;;4976233;28;20034;-88
2021/01/29 14:34:56;;;;;;;11.73;6.05;;;;;;;;;;4975877;28;20097;-89
2021/01/29 14:37:32;;;;;;;12.75;6.25;;;;;;;;;;4976344;28;20030;-88
2021/01/29 14:40:07;;;;;;;11.15;5.85;;;;;;;;;;4976589;28;20034;-89
2021/01/29 14:42:39;;;;;;;10.95;5.72;;;;;;;;;;4975903;28;20030;-89
2021/01/29 14:45:17;;;;;;;12.95;5.07;;;;;;;;;;4977473;28;20030;-89
2021/01/29 14:47:52;;;;;;;17.13;6.80;;;;;;;;;;4976366;28;20038;-89
2021/01/29 14:50:41;;;;;;;14.15;6.95;;;;;;;;;;4976608;28;20027;-83
2021/01/29 14:53:13;;;;;;;16.15;6.97;;;;;;;;;;4974900;28;20488;-83
2021/01/29 14:55:52;;;;;;;16.13;7.03;;;;;;;;;;4974709;28;20034;-83
2021/01/29 14:58:22;;;;;;;17.17;6.80;;;;;;;;;;4974653;28;20043;-83
2021/01/29 15:00:49;;;;;;;14.07;6.57;;;;;;;;;;4975978;28;20042;-83
2021/01/29 15:03:18;;;;;;;13.18;5.82;;;;;;;;;;4976885;28;20475;-81
2021/01/29 15:05:45;;;;;;;14.57;6.90;;;;;;;;;;4974417;28;20023;-83
2021/01/29 15:08:14;;;;;;;18.33;7.72;;;;;;;;;;4974755;28;20030;-84
2021/01/29 15:10:42;;;;;;;18.10;7.60;;;;;;;;;;4976380;28;20027;-83